createdAt,value
2023-01-17T00:00:39.036Z,97986.50
2023-01-17T00:01:57.608Z,97980.84
2023-01-17T00:03:00.594Z,97983.41
2023-01-17T00:04:22.338Z,97979.50
2023-01-17T00:05:44.033Z,97974.75
2023-01-17T00:07:05.648Z,97972.94
2023-01-17T00:08:31.317Z,97972.61
2023-01-17T00:09:52.948Z,97967.98
2023-01-17T00:10:55.989Z,97967.59
2023-01-17T00:12:01.172Z,97969.68
2023-01-17T00:13:04.219Z,97968.72
2023-01-17T00:14:07.620Z,97967.48
2023-01-17T00:15:10.894Z,97968.83
2023-01-17T00:16:14.338Z,97966.10
2023-01-17T00:17:17.460Z,97962.41
2023-01-17T00:18:20.847Z,97959.79
2023-01-17T00:19:42.388Z,97958.40
2023-01-17T00:21:04.088Z,97955.35
2023-01-17T00:22:30.574Z,97954.16
2023-01-17T00:23:52.125Z,97952.34
2023-01-17T00:25:14.097Z,97952.08
2023-01-17T00:26:19.721Z,97947.16
2023-01-17T00:27:23.689Z,97946.41
2023-01-17T00:28:27.235Z,97943.05
2023-01-17T00:29:30.060Z,97938.98
2023-01-17T00:30:33.666Z,97937.70
2023-01-17T00:31:36.524Z,97935.30
2023-01-17T00:32:39.349Z,97932.79
2023-01-17T00:33:42.160Z,97936.00
2023-01-17T00:34:45.050Z,97935.52
2023-01-17T00:35:48.265Z,97932.21
2023-01-17T00:36:51.082Z,97932.44
2023-01-17T00:38:04.999Z,97928.09
2023-01-17T00:39:07.884Z,97920.45
2023-01-17T00:40:11.472Z,97917.89
2023-01-17T00:41:15.022Z,97918.16
2023-01-17T00:42:17.863Z,97919.73
2023-01-17T00:43:42.650Z,97920.52
2023-01-17T00:45:04.273Z,97918.60
2023-01-17T00:46:26.928Z,97917.10
2023-01-17T00:47:48.882Z,97916.99
2023-01-17T00:49:11.080Z,97912.13
2023-01-17T00:50:33.375Z,97907.11
2023-01-17T00:51:56.229Z,97906.42
2023-01-17T00:53:22.989Z,97908.88
2023-01-17T00:54:44.665Z,97909.52
2023-01-17T00:56:06.423Z,97909.46
2023-01-17T00:57:28.143Z,97908.08
2023-01-17T00:58:49.877Z,97910.37
2023-01-17T01:00:11.522Z,97905.82
2023-01-17T01:01:32.905Z,97900.59
2023-01-17T01:02:55.081Z,97888.83
2023-01-17T01:04:16.885Z,97884.55
2023-01-17T01:05:39.058Z,97878.83
2023-01-17T01:07:01.025Z,97877.27
2023-01-17T01:08:23.272Z,97879.84
2023-01-17T01:09:44.984Z,97881.20
2023-01-17T01:11:07.161Z,97884.14
2023-01-17T01:12:28.833Z,97893.43
2023-01-17T01:13:51.058Z,97897.96
2023-01-17T01:15:12.809Z,97900.38
2023-01-17T01:16:35.464Z,97892.41
2023-01-17T01:17:56.853Z,97894.70
2023-01-17T01:19:19.017Z,97890.05
2023-01-17T01:20:40.757Z,97888.59
2023-01-17T01:22:03.387Z,97882.83
2023-01-17T01:23:24.842Z,97886.20
2023-01-17T01:24:46.513Z,97885.52
2023-01-17T01:26:08.345Z,97884.29
2023-01-17T01:27:30.594Z,97885.14
2023-01-17T01:28:52.219Z,97878.98
2023-01-17T01:30:13.885Z,97877.16
2023-01-17T01:31:35.799Z,97872.98
2023-01-17T01:32:57.463Z,97863.90
2023-01-17T01:34:00.602Z,97860.30
2023-01-17T01:35:03.636Z,97857.49
2023-01-17T01:36:09.006Z,97856.86
2023-01-17T01:37:11.921Z,97854.02
2023-01-17T01:38:15.058Z,97851.98
2023-01-17T01:39:17.934Z,97849.84
2023-01-17T01:40:21.117Z,97848.52
2023-01-17T01:41:24.037Z,97844.77
2023-01-17T01:42:27.044Z,97845.89
2023-01-17T01:43:48.023Z,97847.16
2023-01-17T01:44:53.186Z,97843.84
2023-01-17T01:45:59.046Z,97842.18
2023-01-17T01:47:02.587Z,97838.11
2023-01-17T01:48:35.303Z,97836.88
2023-01-17T01:49:38.331Z,97832.08
2023-01-17T01:50:41.437Z,97827.21
2023-01-17T01:51:53.760Z,97828.02
2023-01-17T01:53:01.178Z,97825.84
2023-01-17T01:54:20.793Z,97827.44
2023-01-17T01:55:29.497Z,97819.79
2023-01-17T01:56:33.593Z,97822.20
2023-01-17T01:57:42.334Z,97820.70
2023-01-17T01:58:49.433Z,97823.41
2023-01-17T01:59:58.338Z,97822.88
2023-01-17T02:01:01.375Z,97823.67
2023-01-17T02:02:04.361Z,97819.61
2023-01-17T02:03:23.065Z,97824.03
2023-01-17T02:04:28.828Z,97822.16
2023-01-17T02:05:32.955Z,97823.44
2023-01-17T02:06:39.824Z,97818.73
2023-01-17T02:07:49.253Z,97814.10
2023-01-17T02:08:52.317Z,97814.05
2023-01-17T02:09:55.202Z,97812.98
2023-01-17T02:10:58.670Z,97817.59
2023-01-17T02:12:03.432Z,97820.89
2023-01-17T02:13:07.975Z,97816.93
2023-01-17T02:14:21.845Z,97813.52
2023-01-17T02:15:32.532Z,97813.35
2023-01-17T02:16:55.663Z,97814.20
2023-01-17T02:18:27.573Z,97812.55
2023-01-17T02:19:52.884Z,97806.73
2023-01-17T02:20:58.836Z,97807.15
2023-01-17T02:22:37.805Z,97803.73
2023-01-17T02:23:57.213Z,97797.36
2023-01-17T02:25:10.296Z,97794.89
2023-01-17T02:26:41.471Z,97799.27
2023-01-17T02:28:28.938Z,97797.35
2023-01-17T02:30:09.679Z,97792.11
2023-01-17T02:31:27.040Z,97800.50
2023-01-17T02:32:41.403Z,97802.11
2023-01-17T02:33:52.538Z,97803.24
2023-01-17T02:35:20.548Z,97801.84
2023-01-17T02:36:29.885Z,97798.27
2023-01-17T02:37:35.725Z,97795.69
2023-01-17T02:38:54.519Z,97800.83
2023-01-17T02:40:06.945Z,97806.05
2023-01-17T02:41:25.211Z,97796.02
2023-01-17T02:42:36.237Z,97798.89
2023-01-17T02:43:40.630Z,97796.70
2023-01-17T02:44:44.893Z,97795.84
2023-01-17T02:45:47.864Z,97793.88
2023-01-17T02:46:56.215Z,97789.27
2023-01-17T02:47:59.395Z,97794.08
2023-01-17T02:49:02.947Z,97789.37
2023-01-17T02:50:12.540Z,97786.96
2023-01-17T02:52:00.221Z,97785.30
2023-01-17T02:53:12.759Z,97781.72
2023-01-17T02:54:30.775Z,97782.20
2023-01-17T02:55:58.252Z,97775.63
2023-01-17T02:58:03.686Z,97780.06
2023-01-17T02:59:12.319Z,97778.36
2023-01-17T03:00:56.635Z,97780.65
2023-01-17T03:02:02.512Z,97778.63
2023-01-17T03:03:28.619Z,97781.14
2023-01-17T03:04:44.638Z,97776.01
2023-01-17T03:05:54.852Z,97773.44
2023-01-17T03:07:05.695Z,97774.45
2023-01-17T03:08:10.175Z,97775.30
2023-01-17T03:09:16.014Z,97773.96
2023-01-17T03:10:20.997Z,97780.22
2023-01-17T03:11:24.107Z,97776.69
2023-01-17T03:12:32.258Z,97775.84
2023-01-17T03:13:35.404Z,97779.10
2023-01-17T03:14:38.354Z,97778.98
2023-01-17T03:15:41.315Z,97777.17
2023-01-17T03:16:44.511Z,97775.19
2023-01-17T03:17:52.603Z,97778.08
2023-01-17T03:18:55.608Z,97777.77
2023-01-17T03:19:58.939Z,97779.15
2023-01-17T03:21:01.803Z,97778.51
2023-01-17T03:22:04.930Z,97775.41
2023-01-17T03:23:07.899Z,97774.50
2023-01-17T03:24:10.796Z,97767.60
2023-01-17T03:25:13.799Z,97767.77
2023-01-17T03:26:17.022Z,97771.56
2023-01-17T03:27:19.902Z,97770.44
2023-01-17T03:28:22.773Z,97769.74
2023-01-17T03:29:25.653Z,97771.40
2023-01-17T03:30:28.624Z,97769.16
2023-01-17T03:31:31.572Z,97766.92
2023-01-17T03:32:34.522Z,97762.10
2023-01-17T03:33:37.517Z,97765.43
2023-01-17T03:34:40.455Z,97765.54
2023-01-17T03:35:46.134Z,97764.46
2023-01-17T03:36:49.007Z,97764.36
2023-01-17T03:37:51.902Z,97762.91
2023-01-17T03:38:54.808Z,97763.77
2023-01-17T03:39:57.673Z,97762.55
2023-01-17T03:41:00.558Z,97762.77
2023-01-17T03:42:03.418Z,97759.98
2023-01-17T03:43:06.302Z,97761.27
2023-01-17T03:44:09.181Z,97763.67
2023-01-17T03:45:12.393Z,97767.42
2023-01-17T03:46:25.015Z,97765.28
2023-01-17T03:47:27.919Z,97767.37
2023-01-17T03:48:31.070Z,97771.59
2023-01-17T03:49:34.062Z,97769.52
2023-01-17T03:50:37.115Z,97766.63
2023-01-17T03:51:39.991Z,97770.95
2023-01-17T03:52:42.942Z,97765.30
2023-01-17T03:53:50.061Z,97763.46
2023-01-17T03:54:53.263Z,97765.65
2023-01-17T03:55:56.166Z,97764.42
2023-01-17T03:56:59.044Z,97757.96
2023-01-17T03:58:01.955Z,97756.77
2023-01-17T03:59:04.905Z,97757.85
2023-01-17T04:00:10.201Z,97758.17
2023-01-17T04:01:13.490Z,97761.06
2023-01-17T04:02:16.517Z,97760.73
2023-01-17T04:03:19.493Z,97763.52
2023-01-17T04:04:22.606Z,97766.23
2023-01-17T04:05:25.511Z,97768.65
2023-01-17T04:06:28.627Z,97768.33
2023-01-17T04:07:31.611Z,97768.85
2023-01-17T04:08:34.516Z,97763.46
2023-01-17T04:09:37.539Z,97760.95
2023-01-17T04:10:40.489Z,97760.73
2023-01-17T04:11:43.418Z,97758.29
2023-01-17T04:12:46.343Z,97758.40
2023-01-17T04:13:49.281Z,97758.24
2023-01-17T04:14:52.241Z,97761.46
2023-01-17T04:15:56.146Z,97762.80
2023-01-17T04:17:00.063Z,97754.09
2023-01-17T04:18:05.268Z,97756.44
2023-01-17T04:19:13.164Z,97756.61
2023-01-17T04:20:32.471Z,97758.27
2023-01-17T04:21:35.355Z,97755.21
2023-01-17T04:22:38.187Z,97751.95
2023-01-17T04:23:41.171Z,97753.45
2023-01-17T04:24:44.065Z,97753.08
2023-01-17T04:25:46.997Z,97754.10
2023-01-17T04:26:49.851Z,97755.92
2023-01-17T04:27:53.904Z,97752.88
2023-01-17T04:28:56.767Z,97755.83
2023-01-17T04:29:59.659Z,97751.92
2023-01-17T04:31:02.599Z,97752.27
2023-01-17T04:32:05.572Z,97754.83
2023-01-17T04:33:08.442Z,97754.71
2023-01-17T04:34:11.316Z,97754.13
2023-01-17T04:35:14.342Z,97752.14
2023-01-17T04:36:18.190Z,97756.20
2023-01-17T04:37:21.112Z,97760.42
2023-01-17T04:38:24.491Z,97760.12
2023-01-17T04:39:27.382Z,97759.70
2023-01-17T04:40:30.308Z,97762.52
2023-01-17T04:41:33.983Z,97763.07
2023-01-17T04:42:37.073Z,97765.64
2023-01-17T04:43:40.109Z,97767.62
2023-01-17T04:44:42.991Z,97770.55
2023-01-17T04:45:45.961Z,97772.00
2023-01-17T04:46:48.877Z,97771.14
2023-01-17T04:47:51.904Z,97772.27
2023-01-17T04:48:54.822Z,97772.11
2023-01-17T04:49:57.891Z,97775.37
2023-01-17T04:51:02.460Z,97778.05
2023-01-17T04:52:05.489Z,97774.89
2023-01-17T04:53:08.396Z,97774.58
2023-01-17T04:54:11.270Z,97780.39
2023-01-17T04:55:14.291Z,97780.23
2023-01-17T04:56:17.159Z,97782.10
2023-01-17T04:57:20.739Z,97781.25
2023-01-17T04:58:24.092Z,97782.96
2023-01-17T04:59:26.971Z,97780.51
2023-01-17T05:00:30.438Z,97786.54
2023-01-17T05:01:33.398Z,97787.34
2023-01-17T05:02:36.351Z,97788.90
2023-01-17T05:03:39.247Z,97786.27
2023-01-17T05:04:42.140Z,97789.96
2023-01-17T05:05:45.095Z,97791.52
2023-01-17T05:06:47.981Z,97790.27
2023-01-17T05:07:58.808Z,97789.74
2023-01-17T05:09:03.039Z,97787.45
2023-01-17T05:10:06.572Z,97788.41
2023-01-17T05:11:09.774Z,97790.49
2023-01-17T05:12:12.698Z,97796.11
2023-01-17T05:13:16.053Z,97793.70
2023-01-17T05:14:18.962Z,97788.88
2023-01-17T05:15:22.303Z,97788.08
2023-01-17T05:16:25.246Z,97791.08
2023-01-17T05:17:28.136Z,97789.48
2023-01-17T05:18:31.067Z,97794.09
2023-01-17T05:19:34.142Z,97795.53
2023-01-17T05:20:37.756Z,97798.85
2023-01-17T05:21:40.598Z,97797.84
2023-01-17T05:22:43.639Z,97801.84
2023-01-17T05:23:46.997Z,97803.71
2023-01-17T05:24:49.922Z,97799.88
2023-01-17T05:25:53.112Z,97794.33
2023-01-17T05:26:56.610Z,97795.13
2023-01-17T05:28:02.612Z,97794.48
2023-01-17T05:29:05.599Z,97795.23
2023-01-17T05:30:09.170Z,97795.63
2023-01-17T05:31:12.088Z,97800.91
2023-01-17T05:32:15.049Z,97800.81
2023-01-17T05:33:18.025Z,97797.91
2023-01-17T05:34:20.986Z,97794.54
2023-01-17T05:35:26.893Z,97794.35
2023-01-17T05:36:30.095Z,97791.20
2023-01-17T05:37:32.962Z,97792.54
2023-01-17T05:38:35.836Z,97792.90
2023-01-17T05:39:38.792Z,97794.39
2023-01-17T05:40:41.759Z,97791.95
2023-01-17T05:41:44.829Z,97792.33
2023-01-17T05:42:49.028Z,97794.36
2023-01-17T05:43:51.912Z,97797.50
2023-01-17T05:44:55.251Z,97797.45
2023-01-17T05:45:58.173Z,97800.61
2023-01-17T05:47:01.087Z,97803.72
2023-01-17T05:48:04.385Z,97806.84
2023-01-17T05:49:07.411Z,97806.59
2023-01-17T05:50:12.597Z,97804.13
2023-01-17T05:51:15.732Z,97808.09
2023-01-17T05:52:19.720Z,97805.90
2023-01-17T05:53:23.150Z,97805.79
2023-01-17T05:54:26.007Z,97807.80
2023-01-17T05:55:30.484Z,97812.04
2023-01-17T05:56:33.965Z,97815.88
2023-01-17T05:57:36.797Z,97814.72
2023-01-17T05:58:40.179Z,97817.09
2023-01-17T05:59:43.059Z,97819.45
2023-01-17T06:00:46.600Z,97821.85
2023-01-17T06:01:49.597Z,97818.17
2023-01-17T06:03:00.046Z,97823.13
2023-01-17T06:04:18.205Z,97826.32
2023-01-17T06:05:29.999Z,97818.11
2023-01-17T06:06:33.380Z,97818.53
2023-01-17T06:07:36.236Z,97816.83
2023-01-17T06:08:39.172Z,97815.11
2023-01-17T06:09:42.160Z,97822.04
2023-01-17T06:10:45.037Z,97822.89
2023-01-17T06:11:47.976Z,97821.98
2023-01-17T06:12:50.927Z,97820.77
2023-01-17T06:15:39.778Z,97816.59
2023-01-17T06:16:42.746Z,97818.55
2023-01-17T06:17:45.643Z,97820.31
2023-01-17T06:18:48.554Z,97820.74
2023-01-17T06:19:51.424Z,97821.92
2023-01-17T06:20:55.214Z,97820.70
2023-01-17T06:21:58.053Z,97816.91
2023-01-17T06:23:04.423Z,97821.08
2023-01-17T06:24:07.355Z,97820.91
2023-01-17T06:25:10.307Z,97818.96
2023-01-17T06:26:13.213Z,97818.59
2023-01-17T06:27:16.133Z,97820.73
2023-01-17T06:28:21.856Z,97826.22
2023-01-17T06:29:24.840Z,97821.05
2023-01-17T06:30:27.797Z,97819.93
2023-01-17T06:31:30.704Z,97811.64
2023-01-17T06:32:33.620Z,97808.97
2023-01-17T06:33:36.857Z,97805.34
2023-01-17T06:34:40.515Z,97804.54
2023-01-17T06:35:50.552Z,97805.07
2023-01-17T06:36:53.510Z,97804.76
2023-01-17T06:37:58.320Z,97813.98
2023-01-17T06:39:01.184Z,97819.48
2023-01-17T06:40:04.541Z,97821.45
2023-01-17T06:41:07.545Z,97823.11
2023-01-17T06:42:10.502Z,97826.79
2023-01-17T06:43:13.416Z,97828.98
2023-01-17T06:44:16.292Z,97830.78
2023-01-17T06:45:20.131Z,97830.99
2023-01-17T06:46:23.578Z,97835.59
2023-01-17T06:47:26.562Z,97832.81
2023-01-17T06:48:29.529Z,97836.23
2023-01-17T06:49:32.441Z,97840.28
2023-01-17T06:50:35.476Z,97844.70
2023-01-17T06:51:38.351Z,97848.55
2023-01-17T06:52:42.683Z,97854.44
2023-01-17T06:53:45.566Z,97849.90
2023-01-17T06:54:48.455Z,97857.27
2023-01-17T06:55:52.737Z,97860.15
2023-01-17T06:56:55.672Z,97855.34
2023-01-17T06:57:59.885Z,97860.46
2023-01-17T06:59:03.857Z,97864.77
2023-01-17T07:00:07.653Z,97861.00
2023-01-17T07:01:12.759Z,97859.98
2023-01-17T07:02:16.029Z,97856.20
2023-01-17T07:03:22.726Z,97862.17
2023-01-17T07:04:25.733Z,97864.73
2023-01-17T07:05:28.982Z,97865.80
2023-01-17T07:06:31.919Z,97866.64
2023-01-17T07:07:34.872Z,97867.13
2023-01-17T07:08:38.047Z,97870.33
2023-01-17T07:09:41.005Z,97866.94
2023-01-17T07:10:45.241Z,97866.26
2023-01-17T07:11:48.118Z,97867.16
2023-01-17T07:13:00.899Z,97862.35
2023-01-17T07:14:04.507Z,97859.41
2023-01-17T07:15:08.437Z,97856.11
2023-01-17T07:16:11.527Z,97859.20
2023-01-17T07:17:14.446Z,97859.09
2023-01-17T07:18:23.289Z,97859.69
2023-01-17T07:19:26.187Z,97869.77
2023-01-17T07:20:29.793Z,97868.96
2023-01-17T07:21:32.718Z,97869.33
2023-01-17T07:22:37.798Z,97867.52
2023-01-17T07:23:45.829Z,97864.11
2023-01-17T07:24:49.066Z,97857.55
2023-01-17T07:25:56.695Z,97850.45
2023-01-17T07:26:59.688Z,97853.13
2023-01-17T07:28:04.517Z,97855.71
2023-01-17T07:29:07.487Z,97855.51
2023-01-17T07:30:11.204Z,97855.18
2023-01-17T07:31:14.208Z,97855.15
2023-01-17T07:32:17.133Z,97854.77
2023-01-17T07:33:21.056Z,97856.64
2023-01-17T07:34:24.004Z,97852.91
2023-01-17T07:35:27.400Z,97847.27
2023-01-17T07:36:31.188Z,97843.77
2023-01-17T07:37:34.145Z,97846.66
2023-01-17T07:38:37.086Z,97846.77
2023-01-17T07:39:40.053Z,97849.05
2023-01-17T07:40:43.404Z,97852.42
2023-01-17T07:41:47.291Z,97851.21
2023-01-17T07:42:50.281Z,97849.02
2023-01-17T07:43:55.432Z,97850.73
2023-01-17T07:45:00.876Z,97851.48
2023-01-17T07:46:07.233Z,97849.92
2023-01-17T07:47:10.440Z,97857.70
2023-01-17T07:48:13.461Z,97859.94
2023-01-17T07:49:16.560Z,97861.69
2023-01-17T07:50:19.467Z,97862.86
2023-01-17T07:51:22.405Z,97857.74
2023-01-17T07:52:25.293Z,97859.63
2023-01-17T07:53:30.410Z,97862.47
2023-01-17T07:54:33.432Z,97868.23
2023-01-17T07:55:37.048Z,97873.08
2023-01-17T07:56:40.197Z,97875.91
2023-01-17T07:57:43.242Z,97881.04
2023-01-17T07:58:46.193Z,97883.39
2023-01-17T07:59:52.637Z,97889.00
2023-01-17T08:01:01.710Z,97894.71
2023-01-17T08:02:04.695Z,97898.98
2023-01-17T08:03:11.904Z,97903.94
2023-01-17T08:04:14.823Z,97907.06
2023-01-17T08:05:17.746Z,97909.69
2023-01-17T08:06:24.137Z,97907.39
2023-01-17T08:07:27.011Z,97904.93
2023-01-17T08:08:29.885Z,97907.55
2023-01-17T08:09:33.677Z,97910.55
2023-01-17T08:10:36.951Z,97914.56
2023-01-17T08:11:39.862Z,97914.41
2023-01-17T08:12:42.740Z,97913.27
2023-01-17T08:13:45.539Z,97917.92
2023-01-17T08:14:48.434Z,97918.15
2023-01-17T08:15:51.944Z,97914.42
2023-01-17T08:17:08.060Z,97912.77
2023-01-17T08:18:10.993Z,97911.08
2023-01-17T08:19:15.308Z,97906.48
2023-01-17T08:20:18.769Z,97908.90
2023-01-17T08:21:21.663Z,97908.04
2023-01-17T08:22:24.769Z,97910.89
2023-01-17T08:23:27.751Z,97909.16
2023-01-17T08:24:30.880Z,97909.98
2023-01-17T08:25:35.394Z,97905.39
2023-01-17T08:26:38.356Z,97907.75
2023-01-17T08:27:41.231Z,97904.11
2023-01-17T08:28:44.111Z,97901.32
2023-01-17T08:29:49.029Z,97899.37
2023-01-17T08:30:51.907Z,97899.41
2023-01-17T08:31:55.442Z,97900.69
2023-01-17T08:32:58.930Z,97902.56
2023-01-17T08:34:01.891Z,97898.55
2023-01-17T08:35:05.145Z,97899.98
2023-01-17T08:36:07.954Z,97895.71
2023-01-17T08:37:10.862Z,97897.15
2023-01-17T08:38:13.767Z,97896.90
2023-01-17T08:39:16.756Z,97892.63
2023-01-17T08:40:19.996Z,97893.31
2023-01-17T08:41:24.621Z,97888.98
2023-01-17T08:42:27.542Z,97888.88
2023-01-17T08:43:30.464Z,97887.05
2023-01-17T08:44:33.517Z,97888.06
2023-01-17T08:45:36.589Z,97883.56
2023-01-17T08:46:40.137Z,97884.39
2023-01-17T08:47:43.017Z,97877.48
2023-01-17T08:48:46.234Z,97875.60
2023-01-17T08:49:49.121Z,97875.70
2023-01-17T08:50:51.958Z,97870.73
2023-01-17T08:51:54.914Z,97867.46
2023-01-17T08:53:01.065Z,97866.73
2023-01-17T08:54:04.388Z,97864.16
2023-01-17T08:55:10.202Z,97864.36
2023-01-17T08:56:13.119Z,97865.96
2023-01-17T08:57:16.053Z,97867.88
2023-01-17T08:58:19.032Z,97863.66
2023-01-17T08:59:22.450Z,97862.86
2023-01-17T09:00:25.490Z,97863.97
2023-01-17T09:01:28.494Z,97861.71
2023-01-17T09:02:31.453Z,97863.52
2023-01-17T09:03:35.210Z,97858.29
2023-01-17T09:04:38.123Z,97859.90
2023-01-17T09:05:41.489Z,97864.21
2023-01-17T09:06:48.579Z,97867.20
2023-01-17T09:07:51.668Z,97872.64
2023-01-17T09:08:55.008Z,97875.27
2023-01-17T09:09:57.959Z,97874.63
2023-01-17T09:11:12.348Z,97870.62
2023-01-17T09:12:15.278Z,97870.18
2023-01-17T09:13:18.564Z,97870.06
2023-01-17T09:14:21.542Z,97870.64
2023-01-17T09:15:24.683Z,97872.68
2023-01-17T09:16:28.398Z,97867.73
2023-01-17T09:17:31.994Z,97871.76
2023-01-17T09:18:36.383Z,97873.92
2023-01-17T09:19:42.173Z,97874.56
2023-01-17T09:20:45.379Z,97875.54
2023-01-17T09:21:48.317Z,97876.83
2023-01-17T09:22:51.641Z,97877.09
2023-01-17T09:23:55.697Z,97882.01
2023-01-17T09:24:59.051Z,97882.54
2023-01-17T09:26:02.353Z,97884.61
2023-01-17T09:27:06.857Z,97884.94
2023-01-17T09:28:09.926Z,97888.40
2023-01-17T09:29:17.836Z,97893.48
2023-01-17T09:30:21.586Z,97897.76
2023-01-17T09:31:27.110Z,97896.42
2023-01-17T09:32:30.174Z,97899.31
2023-01-17T09:33:33.088Z,97900.06
2023-01-17T09:34:36.065Z,97900.59
2023-01-17T09:35:39.001Z,97901.24
2023-01-17T09:36:42.592Z,97899.16
2023-01-17T09:37:45.644Z,97899.70
2023-01-17T09:38:48.731Z,97903.87
2023-01-17T09:39:51.657Z,97899.42
2023-01-17T09:40:54.577Z,97902.46
2023-01-17T09:42:18.785Z,97901.45
2023-01-17T09:44:23.435Z,97900.96
2023-01-17T09:45:30.233Z,97900.80
2023-01-17T09:46:39.574Z,97905.62
2023-01-17T09:47:45.286Z,97903.59
2023-01-17T09:48:53.644Z,97909.20
2023-01-17T09:50:03.686Z,97904.48
2023-01-17T09:51:18.470Z,97902.77
2023-01-17T09:52:23.887Z,97905.08
2023-01-17T09:53:31.012Z,97904.06
2023-01-17T09:54:37.861Z,97907.20
2023-01-17T09:55:53.301Z,97905.50
2023-01-17T09:57:12.091Z,97901.81
2023-01-17T09:58:23.007Z,97904.17
2023-01-17T09:59:36.870Z,97904.48
2023-01-17T10:00:48.736Z,97906.25
2023-01-17T10:02:13.138Z,97910.95
2023-01-17T10:03:43.909Z,97913.45
2023-01-17T10:05:08.739Z,97915.10
2023-01-17T10:06:35.751Z,97912.87
2023-01-17T10:08:01.244Z,97911.70
2023-01-17T10:09:17.546Z,97915.49
2023-01-17T10:10:42.446Z,97916.45
2023-01-17T10:12:03.187Z,97922.02
2023-01-17T10:13:27.979Z,97923.71
2023-01-17T10:15:22.607Z,97927.77
2023-01-17T10:16:31.517Z,97925.64
2023-01-17T10:17:41.225Z,97926.38
2023-01-17T10:19:22.578Z,97924.71
2023-01-17T10:20:48.310Z,97926.70
2023-01-17T10:22:07.637Z,97925.43
2023-01-17T10:23:22.515Z,97926.76
2023-01-17T10:25:02.243Z,97928.20
2023-01-17T10:26:17.450Z,97931.14
2023-01-17T10:27:26.225Z,97926.41
2023-01-17T10:28:35.389Z,97925.59
2023-01-17T10:29:38.559Z,97931.54
2023-01-17T10:31:04.664Z,97933.42
2023-01-17T10:32:12.721Z,97931.80
2023-01-17T10:33:20.565Z,97929.16
2023-01-17T10:34:33.227Z,97932.09
2023-01-17T10:35:43.526Z,97931.30
2023-01-17T10:36:52.985Z,97931.77
2023-01-17T10:37:58.756Z,97933.90
2023-01-17T10:39:20.547Z,97935.65
2023-01-17T10:40:54.942Z,97935.58
2023-01-17T10:42:02.733Z,97932.64
2023-01-17T10:43:30.366Z,97929.16
2023-01-17T10:44:43.994Z,97930.44
2023-01-17T10:45:57.263Z,97931.82
2023-01-17T10:47:12.117Z,97928.31
2023-01-17T10:48:30.055Z,97928.54
2023-01-17T10:49:33.111Z,97927.45
2023-01-17T10:50:52.345Z,97929.20
2023-01-17T10:52:22.995Z,97928.13
2023-01-17T10:53:28.519Z,97928.92
2023-01-17T10:54:31.710Z,97928.59
2023-01-17T10:55:45.985Z,97929.17
2023-01-17T10:56:49.082Z,97931.23
2023-01-17T10:57:54.290Z,97929.66
2023-01-17T10:59:30.708Z,97928.45
2023-01-17T11:01:03.140Z,97929.61
2023-01-17T11:02:20.036Z,97928.05
2023-01-17T11:03:24.768Z,97933.73
2023-01-17T11:04:36.779Z,97932.13
2023-01-17T11:05:42.988Z,97932.72
2023-01-17T11:06:57.772Z,97932.55
2023-01-17T11:08:17.810Z,97934.36
2023-01-17T11:09:20.872Z,97931.95
2023-01-17T11:10:45.635Z,97933.60
2023-01-17T11:11:51.631Z,97932.48
2023-01-17T11:12:55.428Z,97932.32
2023-01-17T11:14:06.561Z,97931.56
2023-01-17T11:15:09.525Z,97932.48
2023-01-17T11:16:21.326Z,97932.41
2023-01-17T11:17:27.624Z,97931.66
2023-01-17T11:18:34.201Z,97933.59
2023-01-17T11:19:38.677Z,97930.16
2023-01-17T11:20:43.536Z,97932.67
2023-01-17T11:21:53.503Z,97932.30
2023-01-17T11:23:25.121Z,97930.10
2023-01-17T11:24:53.706Z,97932.14
2023-01-17T11:26:02.550Z,97927.42
2023-01-17T11:27:07.013Z,97934.54
2023-01-17T11:28:30.605Z,97930.24
2023-01-17T11:29:39.540Z,97931.57
2023-01-17T11:31:16.947Z,97933.96
2023-01-17T11:32:31.276Z,97935.14
2023-01-17T11:33:45.513Z,97935.97
2023-01-17T11:35:14.429Z,97941.02
2023-01-17T11:36:27.572Z,97944.54
2023-01-17T11:37:30.654Z,97946.53
2023-01-17T11:38:33.644Z,97947.78
2023-01-17T11:39:36.612Z,97949.16
2023-01-17T11:40:45.011Z,97946.20
2023-01-17T11:41:49.379Z,97948.73
2023-01-17T11:43:05.524Z,97948.48
2023-01-17T11:44:20.495Z,97951.00
2023-01-17T11:45:29.353Z,97947.27
2023-01-17T11:46:33.358Z,97945.92
2023-01-17T11:47:36.344Z,97947.17
2023-01-17T11:48:39.405Z,97949.63
2023-01-17T11:49:45.108Z,97951.56
2023-01-17T11:50:59.169Z,97950.96
2023-01-17T11:52:09.274Z,97949.83
2023-01-17T11:53:19.496Z,97946.62
2023-01-17T11:54:39.680Z,97952.63
2023-01-17T11:56:37.154Z,97953.23
2023-01-17T11:57:40.654Z,97955.27
2023-01-17T11:58:45.975Z,97958.05
2023-01-17T11:59:49.968Z,97957.45
2023-01-17T12:01:02.258Z,97957.99
2023-01-17T12:02:08.297Z,97957.64
2023-01-17T12:03:30.644Z,97956.61
2023-01-17T12:04:55.494Z,97957.05
2023-01-17T12:06:28.648Z,97956.04
2023-01-17T12:07:49.297Z,97951.38
2023-01-17T12:08:58.335Z,97955.35
2023-01-17T12:10:21.130Z,97958.20
2023-01-17T12:12:25.229Z,97959.02
2023-01-17T12:14:03.594Z,97953.97
2023-01-17T12:15:45.070Z,97955.10
2023-01-17T12:17:00.321Z,97952.13
2023-01-17T12:18:30.864Z,97954.64
2023-01-17T12:19:39.045Z,97954.54
2023-01-17T12:20:48.025Z,97954.21
2023-01-17T12:22:21.183Z,97952.02
2023-01-17T12:23:33.606Z,97951.38
2023-01-17T12:25:12.098Z,97953.73
2023-01-17T12:26:27.784Z,97951.16
2023-01-17T12:27:30.816Z,97948.31
2023-01-17T12:28:41.992Z,97952.11
2023-01-17T12:30:16.100Z,97952.06
2023-01-17T12:31:36.918Z,97954.15
2023-01-17T12:33:15.950Z,97953.79
2023-01-17T12:34:27.670Z,97950.84
2023-01-17T12:35:41.812Z,97948.00
2023-01-17T12:36:54.132Z,97948.16
2023-01-17T12:38:07.847Z,97952.92
2023-01-17T12:39:14.423Z,97952.50
2023-01-17T12:40:30.972Z,97954.45
2023-01-17T12:41:41.486Z,97956.01
2023-01-17T12:42:52.847Z,97952.48
2023-01-17T12:44:00.484Z,97957.61
2023-01-17T12:45:22.593Z,97956.78
2023-01-17T12:46:31.735Z,97960.63
2023-01-17T12:47:39.956Z,97958.09
2023-01-17T12:48:45.315Z,97962.76
2023-01-17T12:50:16.298Z,97963.48
2023-01-17T12:51:27.873Z,97965.13
2023-01-17T12:52:49.426Z,97959.21
2023-01-17T12:53:58.101Z,97960.45
2023-01-17T12:55:11.810Z,97965.29
2023-01-17T12:56:26.814Z,97964.05
2023-01-17T12:57:35.123Z,97960.66
2023-01-17T12:58:43.407Z,97961.94
2023-01-17T12:59:49.803Z,97960.39
2023-01-17T13:01:08.727Z,97960.77
2023-01-17T13:02:37.319Z,97960.92
2023-01-17T13:04:06.835Z,97960.88
2023-01-17T13:05:27.245Z,97959.98
2023-01-17T13:06:53.107Z,97963.47
2023-01-17T13:08:19.671Z,97964.23
2023-01-17T13:09:23.614Z,97964.48
2023-01-17T13:10:41.084Z,97959.97
2023-01-17T13:11:51.895Z,97960.23
2023-01-17T13:12:58.125Z,97963.23
2023-01-17T13:14:02.304Z,97963.31
2023-01-17T13:15:19.302Z,97961.52
2023-01-17T13:16:32.368Z,97963.19
2023-01-17T13:17:48.420Z,97960.65
2023-01-17T13:18:52.556Z,97956.89
2023-01-17T13:20:28.853Z,97947.62
2023-01-17T13:21:34.561Z,97952.20
2023-01-17T13:22:40.048Z,97956.15
2023-01-17T13:24:07.055Z,97956.05
2023-01-17T13:25:32.226Z,97954.60
2023-01-17T13:26:51.428Z,97954.64
2023-01-17T13:28:08.068Z,97955.23
2023-01-17T13:29:20.028Z,97957.93
2023-01-17T13:30:35.681Z,97953.50
2023-01-17T13:32:06.224Z,97957.05
2023-01-17T13:33:15.566Z,97956.58
2023-01-17T13:34:40.417Z,97960.88
2023-01-17T13:35:55.201Z,97960.74